sensor_id;sensor_type;location;lat;lon;timestamp;P1;durP1;ratioP1;P2;durP2;ratioP2
20711;SDS011;10517;50.742;4.224;2023-05-29T00:00:07;7.68;;;4.13;;
20711;SDS011;10517;50.742;4.224;2023-05-29T00:02:36;11.48;;;3.15;;
20711;SDS011;10517;50.742;4.224;2023-05-29T00:05:01;11.52;;;4.07;;
20711;SDS011;10517;50.742;4.224;2023-05-29T00:07:28;8.73;;;4.03;;
20711;SDS011;10517;50.742;4.224;2023-05-29T00:09:55;11.00;;;4.55;;
20711;SDS011;10517;50.742;4.224;2023-05-29T00:12:21;11.80;;;3.58;;
20711;SDS011;10517;50.742;4.224;2023-05-29T00:14:48;12.20;;;4.03;;
20711;SDS011;10517;50.742;4.224;2023-05-29T00:17:13;11.82;;;4.43;;
20711;SDS011;10517;50.742;4.224;2023-05-29T00:19:40;9.70;;;3.92;;
20711;SDS011;10517;50.742;4.224;2023-05-29T00:22:09;7.82;;;4.18;;
20711;SDS011;10517;50.742;4.224;2023-05-29T00:24:35;12.85;;;4.53;;
20711;SDS011;10517;50.742;4.224;2023-05-29T00:27:00;8.60;;;4.80;;
20711;SDS011;10517;50.742;4.224;2023-05-29T00:29:26;10.23;;;4.20;;
20711;SDS011;10517;50.742;4.224;2023-05-29T00:31:52;10.25;;;4.40;;
20711;SDS011;10517;50.742;4.224;2023-05-29T00:34:18;10.32;;;4.57;;
20711;SDS011;10517;50.742;4.224;2023-05-29T00:36:45;12.55;;;5.00;;
20711;SDS011;10517;50.742;4.224;2023-05-29T00:39:11;11.88;;;4.63;;
20711;SDS011;10517;50.742;4.224;2023-05-29T00:41:37;13.48;;;4.10;;
20711;SDS011;10517;50.742;4.224;2023-05-29T00:44:02;13.60;;;4.47;;
20711;SDS011;10517;50.742;4.224;2023-05-29T00:46:28;11.25;;;4.43;;
20711;SDS011;10517;50.742;4.224;2023-05-29T00:48:56;7.75;;;4.22;;
20711;SDS011;10517;50.742;4.224;2023-05-29T00:51:23;11.70;;;4.40;;
20711;SDS011;10517;50.742;4.224;2023-05-29T00:53:51;13.73;;;4.15;;
20711;SDS011;10517;50.742;4.224;2023-05-29T00:56:18;10.15;;;4.82;;
20711;SDS011;10517;50.742;4.224;2023-05-29T00:58:46;8.85;;;4.22;;
20711;SDS011;10517;50.742;4.224;2023-05-29T01:01:14;14.00;;;4.55;;
20711;SDS011;10517;50.742;4.224;2023-05-29T01:03:41;9.05;;;4.32;;
20711;SDS011;10517;50.742;4.224;2023-05-29T01:06:07;11.85;;;5.00;;
20711;SDS011;10517;50.742;4.224;2023-05-29T01:08:35;12.23;;;4.65;;
20711;SDS011;10517;50.742;4.224;2023-05-29T01:11:03;17.05;;;5.43;;
20711;SDS011;10517;50.742;4.224;2023-05-29T01:13:37;11.38;;;4.10;;
20711;SDS011;10517;50.742;4.224;2023-05-29T01:16:21;9.20;;;4.85;;
20711;SDS011;10517;50.742;4.224;2023-05-29T01:24:37;11.05;;;3.70;;
20711;SDS011;10517;50.742;4.224;2023-05-29T01:27:13;8.63;;;4.43;;
20711;SDS011;10517;50.742;4.224;2023-05-29T01:29:42;10.68;;;4.20;;
20711;SDS011;10517;50.742;4.224;2023-05-29T01:32:09;10.73;;;4.60;;
20711;SDS011;10517;50.742;4.224;2023-05-29T01:34:36;12.73;;;5.20;;
20711;SDS011;10517;50.742;4.224;2023-05-29T01:37:01;8.13;;;4.20;;
20711;SDS011;10517;50.742;4.224;2023-05-29T01:39:28;13.20;;;5.13;;
20711;SDS011;10517;50.742;4.224;2023-05-29T01:41:55;12.07;;;5.25;;
20711;SDS011;10517;50.742;4.224;2023-05-29T01:44:21;11.35;;;4.30;;
20711;SDS011;10517;50.742;4.224;2023-05-29T01:46:48;8.70;;;4.82;;
20711;SDS011;10517;50.742;4.224;2023-05-29T01:49:15;13.65;;;5.45;;
20711;SDS011;10517;50.742;4.224;2023-05-29T01:51:41;8.95;;;4.05;;
20711;SDS011;10517;50.742;4.224;2023-05-29T01:54:07;14.27;;;4.38;;
20711;SDS011;10517;50.742;4.224;2023-05-29T01:56:33;12.73;;;3.88;;
20711;SDS011;10517;50.742;4.224;2023-05-29T01:59:00;8.77;;;3.97;;
20711;SDS011;10517;50.742;4.224;2023-05-29T02:01:27;17.60;;;5.00;;
20711;SDS011;10517;50.742;4.224;2023-05-29T02:03:53;9.98;;;4.68;;
20711;SDS011;10517;50.742;4.224;2023-05-29T02:06:19;9.20;;;4.93;;
20711;SDS011;10517;50.742;4.224;2023-05-29T02:08:45;14.57;;;5.00;;
20711;SDS011;10517;50.742;4.224;2023-05-29T02:11:11;9.18;;;3.88;;
20711;SDS011;10517;50.742;4.224;2023-05-29T02:13:37;6.97;;;3.45;;
20711;SDS011;10517;50.742;4.224;2023-05-29T02:16:03;12.40;;;4.18;;
20711;SDS011;10517;50.742;4.224;2023-05-29T02:18:28;9.75;;;4.03;;
20711;SDS011;10517;50.742;4.224;2023-05-29T02:20:54;8.90;;;3.67;;
20711;SDS011;10517;50.742;4.224;2023-05-29T02:23:20;12.20;;;4.70;;
20711;SDS011;10517;50.742;4.224;2023-05-29T02:25:46;11.52;;;4.00;;
20711;SDS011;10517;50.742;4.224;2023-05-29T02:28:12;6.43;;;3.83;;
20711;SDS011;10517;50.742;4.224;2023-05-29T02:30:37;9.95;;;2.83;;
20711;SDS011;10517;50.742;4.224;2023-05-29T02:33:03;10.63;;;3.93;;
20711;SDS011;10517;50.742;4.224;2023-05-29T02:35:29;12.70;;;3.72;;
20711;SDS011;10517;50.742;4.224;2023-05-29T02:37:55;8.77;;;3.93;;
20711;SDS011;10517;50.742;4.224;2023-05-29T02:40:20;8.80;;;4.30;;
20711;SDS011;10517;50.742;4.224;2023-05-29T02:42:46;11.32;;;4.40;;
20711;SDS011;10517;50.742;4.224;2023-05-29T02:45:12;10.23;;;3.50;;
20711;SDS011;10517;50.742;4.224;2023-05-29T02:47:38;9.80;;;4.40;;
20711;SDS011;10517;50.742;4.224;2023-05-29T02:50:04;8.20;;;4.40;;
20711;SDS011;10517;50.742;4.224;2023-05-29T02:52:31;10.43;;;4.32;;
20711;SDS011;10517;50.742;4.224;2023-05-29T02:54:57;9.73;;;4.17;;
20711;SDS011;10517;50.742;4.224;2023-05-29T02:57:23;8.30;;;4.13;;
20711;SDS011;10517;50.742;4.224;2023-05-29T02:59:49;13.07;;;3.43;;
20711;SDS011;10517;50.742;4.224;2023-05-29T03:02:16;13.87;;;3.60;;
20711;SDS011;10517;50.742;4.224;2023-05-29T03:04:42;6.50;;;3.33;;
20711;SDS011;10517;50.742;4.224;2023-05-29T03:07:08;10.03;;;3.37;;
20711;SDS011;10517;50.742;4.224;2023-05-29T03:09:34;10.02;;;4.32;;
20711;SDS011;10517;50.742;4.224;2023-05-29T03:12:00;14.67;;;3.30;;
20711;SDS011;10517;50.742;4.224;2023-05-29T03:14:29;10.27;;;3.93;;
20711;SDS011;10517;50.742;4.224;2023-05-29T03:16:55;8.93;;;3.30;;
20711;SDS011;10517;50.742;4.224;2023-05-29T03:19:21;9.67;;;3.43;;
20711;SDS011;10517;50.742;4.224;2023-05-29T03:21:47;6.47;;;3.43;;
20711;SDS011;10517;50.742;4.224;2023-05-29T03:24:12;14.93;;;3.20;;
20711;SDS011;10517;50.742;4.224;2023-05-29T03:26:41;6.53;;;2.40;;
20711;SDS011;10517;50.742;4.224;2023-05-29T03:29:07;8.83;;;2.50;;
20711;SDS011;10517;50.742;4.224;2023-05-29T03:31:33;15.07;;;3.00;;
20711;SDS011;10517;50.742;4.224;2023-05-29T03:33:59;10.43;;;2.70;;
20711;SDS011;10517;50.742;4.224;2023-05-29T03:36:25;6.23;;;2.47;;
20711;SDS011;10517;50.742;4.224;2023-05-29T03:38:50;10.00;;;2.37;;
20711;SDS011;10517;50.742;4.224;2023-05-29T03:41:16;10.57;;;2.30;;
20711;SDS011;10517;50.742;4.224;2023-05-29T03:43:41;10.00;;;2.60;;
20711;SDS011;10517;50.742;4.224;2023-05-29T03:46:07;2.80;;;1.50;;
20711;SDS011;10517;50.742;4.224;2023-05-29T03:48:33;6.83;;;1.83;;
20711;SDS011;10517;50.742;4.224;2023-05-29T03:50:59;9.00;;;2.90;;
20711;SDS011;10517;50.742;4.224;2023-05-29T03:53:24;10.57;;;1.87;;
20711;SDS011;10517;50.742;4.224;2023-05-29T03:55:50;6.27;;;2.13;;
20711;SDS011;10517;50.742;4.224;2023-05-29T03:58:16;13.50;;;2.30;;
20711;SDS011;10517;50.742;4.224;2023-05-29T04:00:42;15.23;;;2.20;;
20711;SDS011;10517;50.742;4.224;2023-05-29T04:03:07;13.10;;;2.50;;
20711;SDS011;10517;50.742;4.224;2023-05-29T04:05:33;7.50;;;2.13;;
20711;SDS011;10517;50.742;4.224;2023-05-29T04:08:00;3.97;;;1.77;;
20711;SDS011;10517;50.742;4.224;2023-05-29T04:10:26;8.67;;;2.33;;
20711;SDS011;10517;50.742;4.224;2023-05-29T04:12:54;5.90;;;1.77;;
20711;SDS011;10517;50.742;4.224;2023-05-29T04:15:19;8.03;;;1.60;;
20711;SDS011;10517;50.742;4.224;2023-05-29T04:17:46;5.73;;;1.83;;
20711;SDS011;10517;50.742;4.224;2023-05-29T04:20:12;1.70;;;1.13;;
20711;SDS011;10517;50.742;4.224;2023-05-29T04:22:38;2.27;;;0.93;;
20711;SDS011;10517;50.742;4.224;2023-05-29T04:25:04;7.40;;;2.17;;
20711;SDS011;10517;50.742;4.224;2023-05-29T04:27:30;10.50;;;1.80;;
20711;SDS011;10517;50.742;4.224;2023-05-29T04:30:02;3.77;;;1.63;;
20711;SDS011;10517;50.742;4.224;2023-05-29T04:32:32;9.47;;;1.97;;
20711;SDS011;10517;50.742;4.224;2023-05-29T04:35:01;7.83;;;1.60;;
20711;SDS011;10517;50.742;4.224;2023-05-29T04:37:30;2.53;;;1.33;;
20711;SDS011;10517;50.742;4.224;2023-05-29T04:39:56;16.27;;;1.83;;
20711;SDS011;10517;50.742;4.224;2023-05-29T04:42:22;3.73;;;1.20;;
20711;SDS011;10517;50.742;4.224;2023-05-29T04:44:49;7.03;;;2.00;;
20711;SDS011;10517;50.742;4.224;2023-05-29T04:47:17;14.70;;;1.70;;
20711;SDS011;10517;50.742;4.224;2023-05-29T04:49:44;5.57;;;1.40;;
20711;SDS011;10517;50.742;4.224;2023-05-29T04:52:13;5.57;;;1.53;;
20711;SDS011;10517;50.742;4.224;2023-05-29T04:54:40;2.97;;;1.20;;
20711;SDS011;10517;50.742;4.224;2023-05-29T04:57:05;7.60;;;1.40;;
20711;SDS011;10517;50.742;4.224;2023-05-29T04:59:31;5.40;;;1.00;;
20711;SDS011;10517;50.742;4.224;2023-05-29T05:01:57;6.27;;;1.53;;
20711;SDS011;10517;50.742;4.224;2023-05-29T05:04:22;6.13;;;1.93;;
20711;SDS011;10517;50.742;4.224;2023-05-29T05:06:48;5.23;;;1.40;;
20711;SDS011;10517;50.742;4.224;2023-05-29T05:09:13;6.83;;;1.37;;
20711;SDS011;10517;50.742;4.224;2023-05-29T05:11:39;5.37;;;1.83;;
20711;SDS011;10517;50.742;4.224;2023-05-29T05:14:05;5.93;;;1.17;;
20711;SDS011;10517;50.742;4.224;2023-05-29T05:16:30;3.43;;;1.40;;
20711;SDS011;10517;50.742;4.224;2023-05-29T05:18:58;13.20;;;1.60;;
20711;SDS011;10517;50.742;4.224;2023-05-29T05:21:23;8.70;;;1.80;;
20711;SDS011;10517;50.742;4.224;2023-05-29T05:23:49;12.20;;;1.73;;
20711;SDS011;10517;50.742;4.224;2023-05-29T05:26:14;8.27;;;2.30;;
20711;SDS011;10517;50.742;4.224;2023-05-29T05:28:40;5.30;;;1.23;;
20711;SDS011;10517;50.742;4.224;2023-05-29T05:31:06;7.37;;;2.03;;
20711;SDS011;10517;50.742;4.224;2023-05-29T05:33:32;5.17;;;1.20;;
20711;SDS011;10517;50.742;4.224;2023-05-29T05:35:58;6.53;;;1.17;;
20711;SDS011;10517;50.742;4.224;2023-05-29T05:38:23;7.70;;;1.37;;
20711;SDS011;10517;50.742;4.224;2023-05-29T05:40:49;7.77;;;1.53;;
20711;SDS011;10517;50.742;4.224;2023-05-29T05:43:15;3.40;;;1.23;;
20711;SDS011;10517;50.742;4.224;2023-05-29T05:45:40;7.38;;;1.83;;
20711;SDS011;10517;50.742;4.224;2023-05-29T05:48:07;7.00;;;1.52;;
20711;SDS011;10517;50.742;4.224;2023-05-29T05:50:33;14.93;;;2.10;;
20711;SDS011;10517;50.742;4.224;2023-05-29T05:52:59;14.32;;;1.55;;
20711;SDS011;10517;50.742;4.224;2023-05-29T05:55:25;9.15;;;1.33;;
20711;SDS011;10517;50.742;4.224;2023-05-29T05:57:52;8.55;;;1.60;;
20711;SDS011;10517;50.742;4.224;2023-05-29T06:00:18;13.73;;;2.47;;
20711;SDS011;10517;50.742;4.224;2023-05-29T06:02:44;9.07;;;1.60;;
20711;SDS011;10517;50.742;4.224;2023-05-29T06:05:10;2.63;;;1.30;;
20711;SDS011;10517;50.742;4.224;2023-05-29T06:07:36;4.03;;;1.40;;
20711;SDS011;10517;50.742;4.224;2023-05-29T06:10:03;3.40;;;1.05;;
20711;SDS011;10517;50.742;4.224;2023-05-29T06:12:29;7.80;;;1.55;;
20711;SDS011;10517;50.742;4.224;2023-05-29T06:14:55;4.93;;;1.63;;
20711;SDS011;10517;50.742;4.224;2023-05-29T06:17:20;6.28;;;1.23;;
20711;SDS011;10517;50.742;4.224;2023-05-29T06:19:46;6.60;;;1.77;;
20711;SDS011;10517;50.742;4.224;2023-05-29T06:22:16;13.98;;;2.13;;
20711;SDS011;10517;50.742;4.224;2023-05-29T06:24:43;4.97;;;1.67;;
20711;SDS011;10517;50.742;4.224;2023-05-29T06:27:09;6.70;;;1.75;;
20711;SDS011;10517;50.742;4.224;2023-05-29T06:29:34;9.20;;;2.17;;
20711;SDS011;10517;50.742;4.224;2023-05-29T06:32:00;6.50;;;1.75;;
20711;SDS011;10517;50.742;4.224;2023-05-29T06:34:26;9.48;;;1.52;;
20711;SDS011;10517;50.742;4.224;2023-05-29T06:36:52;9.63;;;1.90;;
20711;SDS011;10517;50.742;4.224;2023-05-29T06:39:18;7.97;;;1.25;;
20711;SDS011;10517;50.742;4.224;2023-05-29T06:41:45;4.45;;;1.33;;
20711;SDS011;10517;50.742;4.224;2023-05-29T06:44:10;4.10;;;2.13;;
20711;SDS011;10517;50.742;4.224;2023-05-29T06:46:36;3.08;;;1.08;;
20711;SDS011;10517;50.742;4.224;2023-05-29T06:49:02;10.43;;;1.38;;
20711;SDS011;10517;50.742;4.224;2023-05-29T06:51:27;5.82;;;2.08;;
20711;SDS011;10517;50.742;4.224;2023-05-29T06:53:53;6.90;;;1.55;;
20711;SDS011;10517;50.742;4.224;2023-05-29T06:56:18;6.45;;;2.30;;
20711;SDS011;10517;50.742;4.224;2023-05-29T06:58:45;8.90;;;1.90;;
20711;SDS011;10517;50.742;4.224;2023-05-29T07:01:11;5.53;;;1.45;;
20711;SDS011;10517;50.742;4.224;2023-05-29T07:03:37;4.22;;;1.23;;
20711;SDS011;10517;50.742;4.224;2023-05-29T07:06:03;6.05;;;1.15;;
20711;SDS011;10517;50.742;4.224;2023-05-29T07:08:29;5.53;;;1.63;;
20711;SDS011;10517;50.742;4.224;2023-05-29T07:10:55;7.70;;;1.85;;
20711;SDS011;10517;50.742;4.224;2023-05-29T07:13:20;7.50;;;2.13;;
20711;SDS011;10517;50.742;4.224;2023-05-29T07:15:48;12.88;;;1.63;;
20711;SDS011;10517;50.742;4.224;2023-05-29T07:18:13;5.78;;;1.20;;
20711;SDS011;10517;50.742;4.224;2023-05-29T07:20:39;3.67;;;1.60;;
20711;SDS011;10517;50.742;4.224;2023-05-29T07:23:05;7.15;;;1.63;;
20711;SDS011;10517;50.742;4.224;2023-05-29T07:25:31;7.57;;;1.90;;
20711;SDS011;10517;50.742;4.224;2023-05-29T07:27:57;7.63;;;1.90;;
20711;SDS011;10517;50.742;4.224;2023-05-29T07:30:23;8.82;;;2.00;;
20711;SDS011;10517;50.742;4.224;2023-05-29T07:32:49;8.45;;;1.52;;
20711;SDS011;10517;50.742;4.224;2023-05-29T07:35:14;16.23;;;2.28;;
20711;SDS011;10517;50.742;4.224;2023-05-29T07:37:40;9.43;;;1.80;;
20711;SDS011;10517;50.742;4.224;2023-05-29T07:40:06;7.97;;;1.45;;
20711;SDS011;10517;50.742;4.224;2023-05-29T07:42:32;8.35;;;3.40;;
20711;SDS011;10517;50.742;4.224;2023-05-29T07:44:58;7.32;;;1.63;;
20711;SDS011;10517;50.742;4.224;2023-05-29T07:47:24;7.32;;;2.65;;
20711;SDS011;10517;50.742;4.224;2023-05-29T07:49:50;7.25;;;1.55;;
20711;SDS011;10517;50.742;4.224;2023-05-29T07:52:17;3.60;;;1.30;;
20711;SDS011;10517;50.742;4.224;2023-05-29T07:54:43;7.22;;;2.70;;
20711;SDS011;10517;50.742;4.224;2023-05-29T07:57:08;10.77;;;1.73;;
20711;SDS011;10517;50.742;4.224;2023-05-29T07:59:39;8.77;;;1.77;;
20711;SDS011;10517;50.742;4.224;2023-05-29T08:02:06;7.07;;;1.92;;
20711;SDS011;10517;50.742;4.224;2023-05-29T08:04:32;7.63;;;1.63;;
20711;SDS011;10517;50.742;4.224;2023-05-29T08:06:59;7.20;;;1.58;;
20711;SDS011;10517;50.742;4.224;2023-05-29T08:09:30;7.88;;;1.52;;
20711;SDS011;10517;50.742;4.224;2023-05-29T08:11:55;5.35;;;1.85;;
20711;SDS011;10517;50.742;4.224;2023-05-29T08:14:21;9.90;;;2.25;;
20711;SDS011;10517;50.742;4.224;2023-05-29T08:16:47;13.85;;;1.90;;
20711;SDS011;10517;50.742;4.224;2023-05-29T08:19:12;6.40;;;1.67;;
20711;SDS011;10517;50.742;4.224;2023-05-29T08:21:38;8.98;;;2.00;;
20711;SDS011;10517;50.742;4.224;2023-05-29T08:24:04;12.88;;;2.63;;
20711;SDS011;10517;50.742;4.224;2023-05-29T08:26:30;13.57;;;1.83;;
20711;SDS011;10517;50.742;4.224;2023-05-29T08:28:56;8.38;;;1.88;;
20711;SDS011;10517;50.742;4.224;2023-05-29T08:31:22;8.43;;;2.35;;
20711;SDS011;10517;50.742;4.224;2023-05-29T08:33:50;7.10;;;2.55;;
20711;SDS011;10517;50.742;4.224;2023-05-29T08:36:16;6.25;;;1.85;;
20711;SDS011;10517;50.742;4.224;2023-05-29T08:38:42;5.00;;;2.15;;
20711;SDS011;10517;50.742;4.224;2023-05-29T08:41:08;8.55;;;1.85;;
20711;SDS011;10517;50.742;4.224;2023-05-29T08:43:41;6.25;;;2.97;;
20711;SDS011;10517;50.742;4.224;2023-05-29T08:46:08;5.97;;;1.58;;
20711;SDS011;10517;50.742;4.224;2023-05-29T08:48:34;9.27;;;2.08;;
20711;SDS011;10517;50.742;4.224;2023-05-29T08:51:04;10.25;;;2.42;;
20711;SDS011;10517;50.742;4.224;2023-05-29T08:53:32;9.52;;;1.58;;
20711;SDS011;10517;50.742;4.224;2023-05-29T08:55:58;4.50;;;1.38;;
20711;SDS011;10517;50.742;4.224;2023-05-29T08:58:26;6.28;;;2.40;;
20711;SDS011;10517;50.742;4.224;2023-05-29T09:00:51;11.60;;;2.50;;
20711;SDS011;10517;50.742;4.224;2023-05-29T09:03:17;7.60;;;2.28;;
20711;SDS011;10517;50.742;4.224;2023-05-29T09:05:45;4.65;;;1.95;;
20711;SDS011;10517;50.742;4.224;2023-05-29T09:08:10;6.10;;;1.88;;
20711;SDS011;10517;50.742;4.224;2023-05-29T09:10:37;6.60;;;1.95;;
20711;SDS011;10517;50.742;4.224;2023-05-29T09:13:08;2.20;;;1.50;;
20711;SDS011;10517;50.742;4.224;2023-05-29T09:15:35;7.88;;;1.80;;
20711;SDS011;10517;50.742;4.224;2023-05-29T09:18:01;5.68;;;2.03;;
20711;SDS011;10517;50.742;4.224;2023-05-29T09:20:29;4.55;;;1.73;;
20711;SDS011;10517;50.742;4.224;2023-05-29T09:22:55;11.43;;;3.33;;
20711;SDS011;10517;50.742;4.224;2023-05-29T09:25:32;5.13;;;2.10;;
20711;SDS011;10517;50.742;4.224;2023-05-29T09:28:01;7.78;;;2.67;;
20711;SDS011;10517;50.742;4.224;2023-05-29T09:32:59;4.93;;;1.90;;
20711;SDS011;10517;50.742;4.224;2023-05-29T09:35:26;7.25;;;2.33;;
20711;SDS011;10517;50.742;4.224;2023-05-29T09:37:58;7.70;;;2.22;;
20711;SDS011;10517;50.742;4.224;2023-05-29T09:40:24;8.48;;;2.00;;
20711;SDS011;10517;50.742;4.224;2023-05-29T09:42:50;4.72;;;2.40;;
20711;SDS011;10517;50.742;4.224;2023-05-29T09:45:20;4.90;;;2.05;;
20711;SDS011;10517;50.742;4.224;2023-05-29T09:47:46;8.30;;;2.95;;
20711;SDS011;10517;50.742;4.224;2023-05-29T09:50:19;9.57;;;2.22;;
20711;SDS011;10517;50.742;4.224;2023-05-29T09:52:50;3.45;;;1.50;;
20711;SDS011;10517;50.742;4.224;2023-05-29T09:55:17;4.65;;;1.98;;
20711;SDS011;10517;50.742;4.224;2023-05-29T09:57:46;7.25;;;2.08;;
20711;SDS011;10517;50.742;4.224;2023-05-29T10:00:13;7.70;;;1.55;;
20711;SDS011;10517;50.742;4.224;2023-05-29T10:02:41;7.03;;;2.08;;
20711;SDS011;10517;50.742;4.224;2023-05-29T10:05:07;4.15;;;2.17;;
20711;SDS011;10517;50.742;4.224;2023-05-29T10:07:34;10.10;;;2.25;;
20711;SDS011;10517;50.742;4.224;2023-05-29T10:10:02;8.65;;;2.53;;
20711;SDS011;10517;50.742;4.224;2023-05-29T10:12:34;9.43;;;2.47;;
20711;SDS011;10517;50.742;4.224;2023-05-29T10:15:08;9.23;;;2.28;;
20711;SDS011;10517;50.742;4.224;2023-05-29T10:17:43;5.90;;;2.28;;
20711;SDS011;10517;50.742;4.224;2023-05-29T10:20:19;9.68;;;2.25;;
20711;SDS011;10517;50.742;4.224;2023-05-29T10:22:47;10.27;;;2.00;;
20711;SDS011;10517;50.742;4.224;2023-05-29T10:25:16;6.15;;;2.28;;
20711;SDS011;10517;50.742;4.224;2023-05-29T10:27:43;8.73;;;2.40;;
20711;SDS011;10517;50.742;4.224;2023-05-29T10:30:33;6.35;;;2.10;;
20711;SDS011;10517;50.742;4.224;2023-05-29T10:33:06;10.50;;;2.33;;
20711;SDS011;10517;50.742;4.224;2023-05-29T10:36:32;3.78;;;2.55;;
20711;SDS011;10517;50.742;4.224;2023-05-29T10:38:31;12.25;;;2.28;;
20711;SDS011;10517;50.742;4.224;2023-05-29T10:41:18;8.75;;;2.08;;
20711;SDS011;10517;50.742;4.224;2023-05-29T10:43:51;5.80;;;2.17;;
20711;SDS011;10517;50.742;4.224;2023-05-29T10:46:20;8.55;;;2.35;;
20711;SDS011;10517;50.742;4.224;2023-05-29T10:48:47;2.95;;;1.55;;
20711;SDS011;10517;50.742;4.224;2023-05-29T10:51:25;8.75;;;2.40;;
20711;SDS011;10517;50.742;4.224;2023-05-29T10:53:52;4.78;;;2.10;;
20711;SDS011;10517;50.742;4.224;2023-05-29T10:56:21;6.28;;;2.47;;
20711;SDS011;10517;50.742;4.224;2023-05-29T10:58:53;5.82;;;2.40;;
20711;SDS011;10517;50.742;4.224;2023-05-29T11:01:23;11.48;;;3.13;;
20711;SDS011;10517;50.742;4.224;2023-05-29T11:03:53;2.10;;;1.95;;
20711;SDS011;10517;50.742;4.224;2023-05-29T11:06:38;5.15;;;1.88;;
20711;SDS011;10517;50.742;4.224;2023-05-29T11:09:06;7.53;;;2.35;;
20711;SDS011;10517;50.742;4.224;2023-05-29T11:14:59;2.45;;;2.13;;
20711;SDS011;10517;50.742;4.224;2023-05-29T11:20:09;9.63;;;2.10;;
20711;SDS011;10517;50.742;4.224;2023-05-29T11:23:03;6.80;;;2.35;;
20711;SDS011;10517;50.742;4.224;2023-05-29T11:25:33;7.63;;;2.55;;
20711;SDS011;10517;50.742;4.224;2023-05-29T11:28:00;11.15;;;2.53;;
20711;SDS011;10517;50.742;4.224;2023-05-29T11:30:26;5.70;;;1.65;;
20711;SDS011;10517;50.742;4.224;2023-05-29T11:32:52;10.10;;;2.97;;
20711;SDS011;10517;50.742;4.224;2023-05-29T11:35:19;2.88;;;2.05;;
20711;SDS011;10517;50.742;4.224;2023-05-29T11:37:47;13.48;;;2.58;;
20711;SDS011;10517;50.742;4.224;2023-05-29T11:40:13;7.25;;;2.05;;
20711;SDS011;10517;50.742;4.224;2023-05-29T11:42:43;5.15;;;2.70;;
20711;SDS011;10517;50.742;4.224;2023-05-29T11:45:11;5.95;;;1.98;;
20711;SDS011;10517;50.742;4.224;2023-05-29T11:48:04;11.60;;;2.60;;
20711;SDS011;10517;50.742;4.224;2023-05-29T11:50:31;12.10;;;2.63;;
20711;SDS011;10517;50.742;4.224;2023-05-29T11:52:57;11.07;;;3.92;;
20711;SDS011;10517;50.742;4.224;2023-05-29T11:55:24;6.70;;;2.50;;
20711;SDS011;10517;50.742;4.224;2023-05-29T11:57:52;5.90;;;2.15;;
20711;SDS011;10517;50.742;4.224;2023-05-29T12:00:25;8.55;;;2.40;;
20711;SDS011;10517;50.742;4.224;2023-05-29T12:02:51;4.93;;;2.28;;
20711;SDS011;10517;50.742;4.224;2023-05-29T12:05:18;9.23;;;3.17;;
20711;SDS011;10517;50.742;4.224;2023-05-29T12:10:15;11.57;;;2.70;;
20711;SDS011;10517;50.742;4.224;2023-05-29T12:12:42;6.50;;;2.58;;
20711;SDS011;10517;50.742;4.224;2023-05-29T12:15:11;4.10;;;2.28;;
20711;SDS011;10517;50.742;4.224;2023-05-29T12:17:38;7.25;;;2.00;;
20711;SDS011;10517;50.742;4.224;2023-05-29T12:20:05;9.73;;;2.70;;
20711;SDS011;10517;50.742;4.224;2023-05-29T12:22:34;5.70;;;2.42;;
20711;SDS011;10517;50.742;4.224;2023-05-29T12:25:13;10.48;;;2.70;;
20711;SDS011;10517;50.742;4.224;2023-05-29T12:27:43;10.10;;;2.78;;
20711;SDS011;10517;50.742;4.224;2023-05-29T12:30:29;5.53;;;2.00;;
20711;SDS011;10517;50.742;4.224;2023-05-29T12:32:56;6.22;;;2.08;;
20711;SDS011;10517;50.742;4.224;2023-05-29T12:35:25;5.20;;;2.03;;
20711;SDS011;10517;50.742;4.224;2023-05-29T12:40:26;8.48;;;2.70;;
20711;SDS011;10517;50.742;4.224;2023-05-29T12:45:29;6.28;;;2.90;;
20711;SDS011;10517;50.742;4.224;2023-05-29T12:50:25;3.33;;;2.35;;
20711;SDS011;10517;50.742;4.224;2023-05-29T12:52:56;4.43;;;2.45;;
20711;SDS011;10517;50.742;4.224;2023-05-29T12:55:25;4.15;;;2.33;;
20711;SDS011;10517;50.742;4.224;2023-05-29T12:57:51;4.95;;;2.20;;
20711;SDS011;10517;50.742;4.224;2023-05-29T13:00:18;7.20;;;2.67;;
20711;SDS011;10517;50.742;4.224;2023-05-29T13:02:45;4.65;;;2.60;;
20711;SDS011;10517;50.742;4.224;2023-05-29T13:05:11;6.18;;;2.30;;
20711;SDS011;10517;50.742;4.224;2023-05-29T13:07:37;6.50;;;2.45;;
20711;SDS011;10517;50.742;4.224;2023-05-29T13:10:03;3.72;;;2.47;;
20711;SDS011;10517;50.742;4.224;2023-05-29T13:12:29;8.23;;;2.33;;
20711;SDS011;10517;50.742;4.224;2023-05-29T13:14:54;3.17;;;2.53;;
20711;SDS011;10517;50.742;4.224;2023-05-29T13:17:21;7.50;;;3.05;;
20711;SDS011;10517;50.742;4.224;2023-05-29T13:19:47;5.82;;;2.35;;
20711;SDS011;10517;50.742;4.224;2023-05-29T13:22:13;5.82;;;2.47;;
20711;SDS011;10517;50.742;4.224;2023-05-29T13:24:38;18.20;;;3.40;;
20711;SDS011;10517;50.742;4.224;2023-05-29T13:27:04;7.50;;;2.92;;
20711;SDS011;10517;50.742;4.224;2023-05-29T13:29:30;5.88;;;3.05;;
20711;SDS011;10517;50.742;4.224;2023-05-29T13:31:56;5.82;;;2.90;;
20711;SDS011;10517;50.742;4.224;2023-05-29T13:34:22;6.75;;;2.70;;
20711;SDS011;10517;50.742;4.224;2023-05-29T13:36:50;7.53;;;2.53;;
20711;SDS011;10517;50.742;4.224;2023-05-29T13:39:16;4.15;;;3.13;;
20711;SDS011;10517;50.742;4.224;2023-05-29T13:41:42;4.32;;;2.78;;
20711;SDS011;10517;50.742;4.224;2023-05-29T13:44:07;3.90;;;2.45;;
20711;SDS011;10517;50.742;4.224;2023-05-29T13:46:33;7.13;;;2.72;;
20711;SDS011;10517;50.742;4.224;2023-05-29T13:48:58;6.32;;;3.05;;
20711;SDS011;10517;50.742;4.224;2023-05-29T13:51:25;6.95;;;2.80;;
20711;SDS011;10517;50.742;4.224;2023-05-29T13:53:50;6.45;;;2.33;;
20711;SDS011;10517;50.742;4.224;2023-05-29T13:56:16;3.58;;;2.40;;
20711;SDS011;10517;50.742;4.224;2023-05-29T13:58:41;7.10;;;2.75;;
20711;SDS011;10517;50.742;4.224;2023-05-29T14:01:07;6.03;;;3.00;;
20711;SDS011;10517;50.742;4.224;2023-05-29T14:03:33;7.07;;;2.90;;
20711;SDS011;10517;50.742;4.224;2023-05-29T14:05:58;8.18;;;2.95;;
20711;SDS011;10517;50.742;4.224;2023-05-29T14:08:24;6.68;;;2.90;;
20711;SDS011;10517;50.742;4.224;2023-05-29T14:10:49;4.78;;;2.53;;
20711;SDS011;10517;50.742;4.224;2023-05-29T14:13:16;7.40;;;2.78;;
20711;SDS011;10517;50.742;4.224;2023-05-29T14:15:41;4.72;;;2.90;;
20711;SDS011;10517;50.742;4.224;2023-05-29T14:18:07;4.18;;;3.03;;
20711;SDS011;10517;50.742;4.224;2023-05-29T14:20:33;6.15;;;2.80;;
20711;SDS011;10517;50.742;4.224;2023-05-29T14:22:58;6.88;;;2.50;;
20711;SDS011;10517;50.742;4.224;2023-05-29T14:25:24;5.13;;;2.35;;
20711;SDS011;10517;50.742;4.224;2023-05-29T14:27:52;5.57;;;2.55;;
20711;SDS011;10517;50.742;4.224;2023-05-29T14:30:17;4.90;;;2.60;;
20711;SDS011;10517;50.742;4.224;2023-05-29T14:32:43;6.88;;;3.05;;
20711;SDS011;10517;50.742;4.224;2023-05-29T14:35:09;6.43;;;2.58;;
20711;SDS011;10517;50.742;4.224;2023-05-29T14:37:35;7.10;;;3.35;;
20711;SDS011;10517;50.742;4.224;2023-05-29T14:40:01;6.95;;;3.25;;
20711;SDS011;10517;50.742;4.224;2023-05-29T14:42:27;5.43;;;2.50;;
20711;SDS011;10517;50.742;4.224;2023-05-29T14:44:52;4.60;;;2.40;;
20711;SDS011;10517;50.742;4.224;2023-05-29T14:47:18;4.50;;;2.33;;
20711;SDS011;10517;50.742;4.224;2023-05-29T14:49:43;4.95;;;2.97;;
20711;SDS011;10517;50.742;4.224;2023-05-29T14:52:09;2.60;;;2.38;;
20711;SDS011;10517;50.742;4.224;2023-05-29T14:54:35;5.05;;;2.35;;
20711;SDS011;10517;50.742;4.224;2023-05-29T14:57:01;4.07;;;2.58;;
20711;SDS011;10517;50.742;4.224;2023-05-29T14:59:26;6.85;;;2.63;;
20711;SDS011;10517;50.742;4.224;2023-05-29T15:01:52;8.45;;;2.95;;
20711;SDS011;10517;50.742;4.224;2023-05-29T15:04:19;6.03;;;2.53;;
20711;SDS011;10517;50.742;4.224;2023-05-29T15:06:44;2.80;;;2.60;;